Latest Weather Observations for Friendly Beaches

IDT60801

Issued at 7:51 pm EDT Wednesday 25 November 2020 (issued every 10 minutes, with the page automatically refreshed every 10 minutes)

About weather observations | Map of weather stations | Latest weather observations for TAS | Other Formats
Station Details ID: 092114 Name: FRIENDLY BEACHES Lat: -42.00 Lon: 148.28 Height: 55.0 m
Data from the previous 72 hours. | See also: Recent months at Friendly Beaches
Date/Time
EDT
Temp
°C
App
Temp
°C
Dew
Point
°C
Rel
Hum
%
Delta-T
°C
Wind Press
QNH
hPa
Press
MSL
hPa
Rain since
9am
mm
Dir  Spd
km/h
Gust
km/h
Spd
kts
Gust
kts
25/07:30pm 23.2 22.0 13.9 56 5.4 NW 13 32 7 17 1002.3 1002.2 0.0
25/07:00pm 24.3 22.3 13.8 52 6.2 NW 17 32 9 17 1001.7 1001.6 0.0
25/06:30pm 24.7 22.7 13.9 51 6.4 NW 17 33 9 18 1001.5 1001.4 0.0
25/06:00pm 25.7 24.7 14.5 50 6.7 NW 13 30 7 16 1001.4 1001.3 0.0
25/05:30pm 24.2 21.6 13.7 52 6.2 NW 20 33 11 18 1001.6 1001.5 0.0
25/05:00pm 26.4 24.5 14.2 47 7.3 WNW 17 28 9 15 1001.6 1001.5 0.0
25/04:30pm 25.9 22.9 13.7 47 7.2 NW 22 35 12 19 1001.5 1001.4 0.0
25/04:00pm 25.9 23.4 14.1 48 7.0 WNW 20 33 11 18 1001.7 1001.6 0.0
25/03:31pm 25.7 21.2 13.9 48 7.0 WNW 30 48 16 26 1001.9 1001.8 0.0
25/03:30pm 25.6 20.7 13.8 48 7.0 WNW 32 48 17 26 1001.9 1001.8 0.0
25/03:01pm 26.0 22.1 14.5 49 6.9 NW 28 46 15 25 1002.1 1002.0 0.0
25/03:00pm 26.0 22.5 14.5 49 6.9 NW 26 46 14 25 1002.1 1002.0 0.0
25/02:30pm 25.6 22.9 14.7 51 6.5 NW 22 43 12 23 1002.2 1002.1 0.0
25/02:10pm 25.2 21.1 13.7 49 6.8 WNW 28 46 15 25 1002.1 1002.0 0.0
25/02:00pm 25.3 21.6 13.8 49 6.8 WNW 26 46 14 25 1002.2 1002.1 0.0
25/01:30pm 27.7 23.5 13.6 42 8.4 WNW 28 52 15 28 1002.3 1002.2 0.0
25/01:29pm 27.4 23.5 13.4 42 8.3 WNW 26 52 14 28 1002.3 1002.2 0.0
25/01:00pm 27.9 26.5 13.4 40 8.6 WNW 13 33 7 18 1003.0 1002.9 0.0
25/12:30pm 28.1 27.2 13.6 41 8.6 NNW 11 20 6 11 1003.5 1003.4 0.0
25/12:00pm 27.1 27.2 14.5 46 7.6 W 7 15 4 8 1004.0 1003.9 0.0
25/11:30am 25.4 24.5 14.8 52 6.4 NNE 13 20 7 11 1004.1 1004.0 0.0
25/11:00am 23.9 23.3 12.2 48 6.7 NNW 7 15 4 8 1004.5 1004.4 0.0
25/10:30am 24.8 23.2 12.7 47 7.0 NW 13 22 7 12 1004.9 1004.8 0.0
25/10:00am 23.9 23.2 13.2 51 6.2 NNW 9 22 5 12 1005.4 1005.3 0.0
25/09:30am 23.1 22.2 12.7 52 6.0 NW 9 19 5 10 1005.8 1005.7 0.0
25/09:00am 21.8 21.5 13.2 58 5.0 NW 7 15 4 8 1006.0 1005.9 0.0
25/08:30am 20.3 19.2 11.8 58 4.7 NW 9 17 5 9 1006.4 1006.3 0.0
25/08:00am 19.3 18.2 12.1 63 4.0 NW 9 15 5 8 1006.6 1006.5 0.0
25/07:30am 18.0 16.9 11.8 67 3.4 WNW 9 15 5 8 1006.8 1006.7 0.0
25/07:00am 16.8 16.6 11.7 72 2.8 NNW 4 7 2 4 1006.8 1006.7 0.0
25/06:30am 14.9 14.1 11.1 78 2.0 NNW 6 7 3 4 1006.9 1006.8 0.0
25/06:00am 14.3 13.2 10.5 78 2.0 NNW 7 9 4 5 1006.9 1006.8 0.0
25/05:30am 14.3 13.3 10.3 77 2.1 NNW 6 9 3 5 1006.9 1006.8 0.0
25/05:00am 14.9 13.3 10.3 74 2.4 N 9 13 5 7 1007.1 1007.0 0.0
25/04:30am 14.6 13.1 10.4 76 2.2 NNW 9 13 5 7 1007.2 1007.1 0.0
25/04:00am 15.0 13.6 10.8 76 2.2 NNW 9 13 5 7 1007.3 1007.2 0.0
25/03:30am 14.9 13.9 10.9 77 2.1 NNW 7 13 4 7 1007.5 1007.4 0.0
25/03:00am 13.7 12.8 10.7 82 1.6 NNW 6 7 3 4 1007.6 1007.5 0.0
25/02:30am 14.8 13.9 11.4 80 1.8 NNW 7 11 4 6 1007.8 1007.7 0.0
25/02:00am 13.6 13.5 12.0 90 0.9 NNE 4 7 2 4 1008.1 1008.0 0.0
25/01:30am 13.4 13.7 12.1 92 0.7 E 2 4 1 2 1008.3 1008.2 0.0
25/01:00am 13.5 13.7 11.7 89 1.0 NNE 2 4 1 2 1008.6 1008.5 0.0
25/12:30am 13.8 13.7 12.2 90 0.9 NNE 4 9 2 5 1008.7 1008.6 0.0
25/12:00am 13.5 14.2 12.1 91 0.8 CALM 0 0 0 0 1009.2 1009.1 0.0
 
Date/Time
EDT
Temp
°C
App
Temp
°C
Dew
Point
°C
Rel
Hum
%
Delta-T
°C
Wind Press
QNH
hPa
Press
MSL
hPa
Rain since
9am
mm
Dir  Spd
km/h
Gust
km/h
Spd
kts
Gust
kts
24/11:30pm 13.4 14.2 12.6 95 0.4 CALM 0 0 0 0 1009.4 1009.3 0.0
24/11:00pm 13.4 14.2 12.5 94 0.5 CALM 0 0 0 0 1009.5 1009.4 0.0
24/10:30pm 13.5 14.3 12.6 94 0.5 CALM 0 0 0 0 1009.7 1009.6 0.0
24/10:00pm 13.8 14.6 12.7 93 0.6 CALM 0 0 0 0 1009.7 1009.6 0.0
24/09:30pm 13.6 14.4 12.5 93 0.6 CALM 0 2 0 1 1009.5 1009.4 0.0
24/09:00pm 14.3 14.3 12.5 89 1.0 N 4 7 2 4 1009.3 1009.2 0.0
24/08:30pm 14.9 12.6 12.9 88 1.1 N 17 24 9 13 1008.8 1008.7 0.0
24/08:00pm 15.1 13.1 12.8 86 1.3 NNE 15 22 8 12 1008.7 1008.6 0.0
24/07:30pm 16.3 13.6 12.8 80 1.9 NNE 19 26 10 14 1008.7 1008.6 0.0
24/07:00pm 17.3 14.5 13.2 77 2.3 NNE 20 33 11 18 1008.5 1008.4 0.0
24/06:30pm 16.1 13.7 12.5 79 2.0 NNE 17 28 9 15 1008.5 1008.4 0.0
24/06:00pm 16.6 13.6 12.6 77 2.2 NNE 20 30 11 16 1008.3 1008.2 0.0
24/05:30pm 16.9 14.0 12.4 75 2.5 NNE 19 28 10 15 1008.4 1008.3 0.0
24/05:00pm 17.1 14.1 12.6 75 2.5 NNE 20 32 11 17 1008.1 1008.0 0.0
24/04:30pm 17.5 14.0 12.2 71 2.9 NNE 22 32 12 17 1008.2 1008.1 0.0
24/04:00pm 19.9 16.6 12.9 64 4.0 NNE 22 33 12 18 1008.2 1008.1 0.0
24/03:30pm 18.9 16.1 12.6 67 3.5 NNE 19 35 10 19 1008.4 1008.3 0.0
24/03:00pm 17.1 14.6 12.4 74 2.6 NNE 17 24 9 13 1008.8 1008.7 0.0
24/02:30pm 17.6 14.6 12.1 70 3.0 NNE 19 28 10 15 1008.9 1008.8 0.0
24/02:00pm 19.1 16.2 12.4 65 3.8 NNE 19 30 10 16 1008.9 1008.8 0.0
24/01:30pm 20.6 17.7 12.8 61 4.4 NNE 20 30 11 16 1009.2 1009.1 0.0
24/01:00pm 17.8 15.2 12.0 69 3.2 NE 17 28 9 15 1009.5 1009.4 0.0
24/12:30pm 17.9 15.4 12.4 70 3.1 NE 17 24 9 13 1009.7 1009.6 0.0
24/12:00pm 17.1 15.4 12.6 75 2.5 NE 13 22 7 12 1010.0 1009.9 0.0
24/11:30am 17.9 15.9 12.8 72 2.9 NE 15 20 8 11 1010.3 1010.2 0.0
24/11:00am 16.0 14.3 12.4 79 2.0 NE 13 22 7 12 1010.6 1010.5 0.0
24/10:30am 15.4 14.0 12.2 81 1.7 NNE 11 19 6 10 1010.7 1010.6 0.0
24/10:00am 14.8 12.7 11.2 79 1.9 NNE 13 20 7 11 1010.7 1010.6 0.0
24/09:30am 15.1 14.1 11.1 77 2.1 NE 7 13 4 7 1010.4 1010.3 0.0
24/09:00am 14.7 13.8 11.3 80 1.8 NNE 7 11 4 6 1010.5 1010.4 0.0
24/08:30am 14.9 14.3 11.7 81 1.7 NNE 6 9 3 5 1010.3 1010.2 0.0
24/08:00am 14.3 14.0 11.3 82 1.6 NE 4 9 2 5 1010.2 1010.1 0.0
24/07:30am 14.4 14.0 11.2 81 1.7 NE 4 7 2 4 1009.7 1009.6 0.0
24/07:00am 13.8 13.5 11.3 85 1.3 NE 4 7 2 4 1009.5 1009.4 0.0
24/06:30am 13.0 12.9 10.9 87 1.1 NE 2 6 1 3 1009.5 1009.4 0.0
24/06:00am 12.8 13.0 10.5 86 1.2 CALM 0 0 0 0 1009.6 1009.5 0.0
24/05:30am 12.7 12.9 10.6 87 1.1 CALM 0 0 0 0 1009.5 1009.4 0.0
24/05:00am 12.9 12.7 10.6 86 1.2 N 2 4 1 2 1009.5 1009.4 0.0
24/04:30am 12.7 12.5 10.4 86 1.2 NW 2 4 1 2 1009.5 1009.4 0.0
24/04:00am 12.9 13.1 10.4 85 1.3 CALM 0 0 0 0 1009.8 1009.7 0.0
24/03:30am 12.8 12.9 10.2 84 1.3 CALM 0 0 0 0 1009.9 1009.8 0.0
24/03:00am 12.9 12.6 10.1 83 1.4 SE 2 4 1 2 1010.2 1010.1 0.0
24/02:30am 12.7 12.8 10.1 84 1.3 CALM 0 0 0 0 1010.5 1010.4 0.0
24/02:00am 12.3 12.4 10.0 86 1.2 CALM 0 4 0 2 1010.6 1010.5 0.0
24/01:30am 12.9 12.9 9.7 81 1.6 CALM 0 0 0 0 1010.6 1010.5 0.0
24/01:00am 13.3 12.6 9.9 80 1.8 SSW 4 6 2 3 1011.0 1011.0 0.0
24/12:30am 13.3 12.9 9.9 80 1.8 W 2 4 1 2 1011.1 1011.1 0.0
24/12:00am 13.3 13.3 9.9 80 1.8 CALM 0 2 0 1 1011.1 1011.1 0.0
 
Date/Time
EDT
Temp
°C
App
Temp
°C
Dew
Point
°C
Rel
Hum
%
Delta-T
°C
Wind Press
QNH
hPa
Press
MSL
hPa
Rain since
9am
mm
Dir  Spd
km/h
Gust
km/h
Spd
kts
Gust
kts
23/11:30pm 13.5 12.8 9.9 79 1.9 SSE 4 6 2 3 1011.3 1011.3 0.0
23/11:00pm 13.5 12.3 9.7 78 2.0 S 6 9 3 5 1011.5 1011.5 0.0
23/10:30pm 13.7 12.0 9.7 77 2.1 SSE 9 13 5 7 1011.9 1011.9 0.0
23/10:00pm 13.8 11.7 9.8 77 2.1 SSE 11 15 6 8 1011.6 1011.6 0.0
23/09:30pm 13.9 12.2 9.9 77 2.1 SSE 9 15 5 8 1011.9 1011.9 0.0
23/09:00pm 13.9 11.9 10.1 78 2.0 SE 11 17 6 9 1011.2 1011.2 0.0
23/08:30pm 13.9 13.2 10.1 78 2.0 S 4 7 2 4 1011.0 1011.0 0.0
23/08:00pm 13.8 12.2 10.2 79 1.9 SE 9 15 5 8 1010.4 1010.3 0.0
23/07:30pm 14.3 12.3 10.3 77 2.1 SE 11 17 6 9 1010.0 1009.9 0.0
23/07:00pm 14.4 11.0 10.4 77 2.1 SSE 19 26 10 14 1009.5 1009.4 0.0
23/06:30pm 14.6 10.8 11.0 79 1.9 SSE 22 32 12 17 1008.9 1008.8 0.0
23/06:00pm 15.2 10.2 11.0 76 2.2 SE 28 39 15 21 1008.8 1008.7 0.0
23/05:30pm 16.1 10.6 11.7 75 2.4 SSE 32 41 17 22 1008.4 1008.3 0.0
23/05:00pm 16.3 11.1 11.7 74 2.5 SSE 30 39 16 21 1008.2 1008.1 0.0
23/04:30pm 17.9 13.5 11.7 67 3.4 SSE 26 39 14 21 1008.0 1007.9 0.0
23/04:00pm 18.8 14.5 12.1 65 3.7 SE 26 39 14 21 1008.0 1007.9 0.0
23/03:30pm 18.8 14.9 12.1 65 3.7 SE 24 35 13 19 1007.9 1007.8 0.0
23/03:00pm 18.9 14.7 12.4 66 3.6 SE 26 37 14 20 1008.1 1008.0 0.0
23/02:30pm 19.5 15.7 12.5 64 3.9 SE 24 35 13 19 1008.3 1008.2 0.0
23/02:00pm 19.3 15.2 12.6 65 3.8 SE 26 35 14 19 1008.4 1008.3 0.0
23/01:30pm 18.7 14.6 12.7 68 3.4 SE 26 37 14 20 1008.4 1008.3 0.0
23/01:00pm 19.7 16.4 12.7 64 4.0 SE 22 32 12 17 1008.4 1008.3 0.0
23/12:30pm 19.9 17.2 12.9 64 4.0 SE 19 28 10 15 1008.7 1008.6 0.0
23/12:00pm 19.4 16.4 12.7 65 3.8 SE 20 32 11 17 1008.5 1008.4 0.0
23/11:30am 19.5 16.8 13.0 66 3.7 SE 19 26 10 14 1008.6 1008.5 0.0
23/11:00am 18.8 16.8 12.8 68 3.4 SE 15 22 8 12 1008.9 1008.8 0.0
23/10:30am 17.0 15.6 12.1 73 2.7 SE 11 20 6 11 1009.2 1009.1 0.0
23/10:00am 16.6 15.4 11.5 72 2.8 SSW 9 19 5 10 1009.2 1009.1 0.0
23/09:30am 15.9 15.0 11.3 74 2.5 S 7 15 4 8 1009.4 1009.3 0.0
23/09:00am 15.9 14.7 11.7 76 2.3 S 9 17 5 9 1009.3 1009.2 0.4
23/08:30am 16.0 14.9 12.0 77 2.2 SW 9 17 5 9 1009.2 1009.1 0.4
23/08:00am 15.0 15.0 12.3 84 1.5 SW 4 9 2 5 1009.4 1009.3 0.4
23/07:30am 14.4 13.8 12.4 88 1.1 WSW 7 11 4 6 1009.2 1009.1 0.4
23/07:00am 14.4 14.0 12.4 88 1.1 SW 6 9 3 5 1009.2 1009.1 0.4
23/06:30am 13.4 12.9 12.5 94 0.5 SW 7 13 4 7 1009.2 1009.1 0.4
23/06:00am 12.8 12.6 11.9 94 0.5 SW 4 6 2 3 1009.3 1009.2 0.4
23/05:30am 12.8 11.9 11.5 92 0.7 SW 7 15 4 8 1009.0 1008.9 0.4
23/05:00am 13.3 11.6 11.2 87 1.1 SSW 11 22 6 12 1008.9 1008.8 0.4
23/04:30am 12.6 11.7 11.5 93 0.6 SSW 7 17 4 9 1008.7 1008.6 0.4
23/04:00am 12.8 11.9 11.4 91 0.7 WSW 7 9 4 5 1008.9 1008.8 0.4
23/03:30am 13.5 12.9 12.4 93 0.6 WSW 7 13 4 7 1009.0 1008.9 0.4
23/03:00am 13.2 12.6 12.4 95 0.4 WSW 7 13 4 7 1009.2 1009.1 0.4
23/02:30am 13.3 12.9 13.0 98 0.2 W 7 9 4 5 1009.5 1009.4 0.2
23/02:00am 13.8 13.6 13.5 98 0.2 W 7 13 4 7 1009.6 1009.5 0.2
23/01:30am 14.1 14.1 13.6 97 0.3 WNW 6 7 3 4 1009.7 1009.6 0.2
23/01:00am 14.4 14.2 13.6 95 0.4 WSW 7 9 4 5 1010.0 1009.9 0.2
23/12:30am 14.5 14.3 13.7 95 0.4 SW 7 13 4 7 1010.1 1010.0 0.2
23/12:00am 15.0 15.1 14.0 94 0.6 SW 6 9 3 5 1010.5 1010.4 0.2
 
Date/Time
EDT
Temp
°C
App
Temp
°C
Dew
Point
°C
Rel
Hum
%
Delta-T
°C
Wind Press
QNH
hPa
Press
MSL
hPa
Rain since
9am
mm
Dir  Spd
km/h
Gust
km/h
Spd
kts
Gust
kts
22/11:30pm 15.3 15.3 14.3 94 0.6 WSW 7 13 4 7 1010.6 1010.5 0.2
22/11:00pm 15.4 14.7 14.3 93 0.6 SW 11 15 6 8 1010.7 1010.6 0.2
22/10:30pm 15.6 15.9 15.1 97 0.3 W 7 9 4 5 1010.9 1010.8 0.2
22/10:00pm 15.8 15.7 15.0 95 0.5 WSW 9 13 5 7 1011.2 1011.2 0.2
22/09:30pm 16.0 16.1 15.5 97 0.3 WSW 9 13 5 7 1011.3 1011.3 0.2
22/09:00pm 15.9 16.3 15.4 97 0.3 WNW 7 11 4 6 1011.4 1011.4 0.2
22/08:30pm 16.1 17.8 15.3 95 0.5 CALM 0 0 0 0 1010.8 1010.7 0.2
22/08:00pm 16.2 17.2 15.4 95 0.5 SSE 4 7 2 4 1011.2 1011.2 0.0

Other formats

Comma delimited format used in spreadsheet applications
http://www.bom.gov.au/fwo/IDT60801/IDT60801.94987.axf

JavaScript Object Notation format (JSON) in row-major order
http://www.bom.gov.au/fwo/IDT60801/IDT60801.94987.json

Data quality

Most of these data are generated automatically and are frequently updated. Quality checks on data are not normally performed. It is possible for incorrect values to appear. Refer to information at About Latest Weather Observations and please check the disclaimer before using these data.